sensor_id;sensor_type;location;lat;lon;timestamp;temperature;humidity
54576;DHT22;40472;53.486;14.542;2022-09-09T00:09:46;14.70;99.90
54576;DHT22;40472;53.486;14.542;2022-09-09T00:12:25;14.70;99.90
54576;DHT22;40472;53.486;14.542;2022-09-09T00:15:00;14.70;99.90
54576;DHT22;40472;53.486;14.542;2022-09-09T00:17:45;14.70;99.90
54576;DHT22;40472;53.486;14.542;2022-09-09T00:21:01;14.70;99.90
54576;DHT22;40472;53.486;14.542;2022-09-09T00:23:31;14.60;99.90
54576;DHT22;40472;53.486;14.542;2022-09-09T00:26:00;14.60;99.90
54576;DHT22;40472;53.486;14.542;2022-09-09T00:28:28;14.60;99.90
54576;DHT22;40472;53.486;14.542;2022-09-09T00:31:01;14.60;99.90
54576;DHT22;40472;53.486;14.542;2022-09-09T00:33:34;14.60;99.90
54576;DHT22;40472;53.486;14.542;2022-09-09T00:36:01;14.60;99.90
54576;DHT22;40472;53.486;14.542;2022-09-09T00:38:31;14.60;99.90
54576;DHT22;40472;53.486;14.542;2022-09-09T00:43:32;14.60;99.90
54576;DHT22;40472;53.486;14.542;2022-09-09T00:46:33;14.70;99.90
54576;DHT22;40472;53.486;14.542;2022-09-09T00:49:28;14.70;99.90
54576;DHT22;40472;53.486;14.542;2022-09-09T00:52:55;14.70;99.90
54576;DHT22;40472;53.486;14.542;2022-09-09T00:57:36;14.60;99.90
54576;DHT22;40472;53.486;14.542;2022-09-09T01:00:23;14.60;99.90
54576;DHT22;40472;53.486;14.542;2022-09-09T01:02:53;14.50;99.90
54576;DHT22;40472;53.486;14.542;2022-09-09T01:07:58;14.60;99.90
54576;DHT22;40472;53.486;14.542;2022-09-09T01:13:26;14.60;99.90
54576;DHT22;40472;53.486;14.542;2022-09-09T01:15:59;14.60;99.90
54576;DHT22;40472;53.486;14.542;2022-09-09T01:18:44;14.60;99.90
54576;DHT22;40472;53.486;14.542;2022-09-09T01:21:34;14.50;99.90
54576;DHT22;40472;53.486;14.542;2022-09-09T01:27:05;14.50;99.90
54576;DHT22;40472;53.486;14.542;2022-09-09T01:29:32;14.40;99.90
54576;DHT22;40472;53.486;14.542;2022-09-09T01:32:35;14.40;99.90
54576;DHT22;40472;53.486;14.542;2022-09-09T01:34:50;14.40;99.90
54576;DHT22;40472;53.486;14.542;2022-09-09T01:37:16;14.40;99.90
54576;DHT22;40472;53.486;14.542;2022-09-09T01:39:43;14.40;99.90
54576;DHT22;40472;53.486;14.542;2022-09-09T01:42:13;14.40;99.90
54576;DHT22;40472;53.486;14.542;2022-09-09T01:44:40;14.40;99.90
54576;DHT22;40472;53.486;14.542;2022-09-09T01:47:06;14.40;99.90
54576;DHT22;40472;53.486;14.542;2022-09-09T01:49:32;14.40;99.90
54576;DHT22;40472;53.486;14.542;2022-09-09T01:51:58;14.40;99.90
54576;DHT22;40472;53.486;14.542;2022-09-09T01:54:27;14.40;99.90
54576;DHT22;40472;53.486;14.542;2022-09-09T01:57:27;14.40;99.90
54576;DHT22;40472;53.486;14.542;2022-09-09T02:00:08;14.40;99.90
54576;DHT22;40472;53.486;14.542;2022-09-09T02:02:52;14.40;99.90
54576;DHT22;40472;53.486;14.542;2022-09-09T02:05:37;14.40;99.90
54576;DHT22;40472;53.486;14.542;2022-09-09T02:08:08;14.40;99.90
54576;DHT22;40472;53.486;14.542;2022-09-09T02:13:17;14.30;99.90
54576;DHT22;40472;53.486;14.542;2022-09-09T02:18:49;14.20;99.90
54576;DHT22;40472;53.486;14.542;2022-09-09T02:21:17;14.30;99.90
54576;DHT22;40472;53.486;14.542;2022-09-09T02:23:44;14.20;99.90
54576;DHT22;40472;53.486;14.542;2022-09-09T02:26:13;14.20;99.90
54576;DHT22;40472;53.486;14.542;2022-09-09T02:28:46;14.20;99.90
54576;DHT22;40472;53.486;14.542;2022-09-09T02:31:14;14.30;99.90
54576;DHT22;40472;53.486;14.542;2022-09-09T02:33:44;14.20;99.90
54576;DHT22;40472;53.486;14.542;2022-09-09T02:36:12;14.30;99.90
54576;DHT22;40472;53.486;14.542;2022-09-09T02:38:46;14.20;99.90
54576;DHT22;40472;53.486;14.542;2022-09-09T02:41:17;14.20;99.90
54576;DHT22;40472;53.486;14.542;2022-09-09T02:43:44;14.30;99.90
54576;DHT22;40472;53.486;14.542;2022-09-09T02:54:04;14.30;99.90
54576;DHT22;40472;53.486;14.542;2022-09-09T02:56:33;14.30;99.90
54576;DHT22;40472;53.486;14.542;2022-09-09T02:59:03;14.20;99.90
54576;DHT22;40472;53.486;14.542;2022-09-09T03:01:29;14.20;99.90
54576;DHT22;40472;53.486;14.542;2022-09-09T03:03:55;14.30;99.90
54576;DHT22;40472;53.486;14.542;2022-09-09T03:06:21;14.30;99.90
54576;DHT22;40472;53.486;14.542;2022-09-09T03:08:47;14.30;99.90
54576;DHT22;40472;53.486;14.542;2022-09-09T03:11:14;14.20;99.90
54576;DHT22;40472;53.486;14.542;2022-09-09T03:13:40;14.20;99.90
54576;DHT22;40472;53.486;14.542;2022-09-09T03:16:05;14.20;99.90
54576;DHT22;40472;53.486;14.542;2022-09-09T03:18:31;14.20;99.90
54576;DHT22;40472;53.486;14.542;2022-09-09T03:20:57;14.20;99.90
54576;DHT22;40472;53.486;14.542;2022-09-09T03:23:26;14.20;99.90
54576;DHT22;40472;53.486;14.542;2022-09-09T03:25:52;14.20;99.90
54576;DHT22;40472;53.486;14.542;2022-09-09T03:28:19;14.20;99.90
54576;DHT22;40472;53.486;14.542;2022-09-09T03:30:46;14.20;99.90
54576;DHT22;40472;53.486;14.542;2022-09-09T03:33:11;14.20;99.90
54576;DHT22;40472;53.486;14.542;2022-09-09T03:35:38;14.10;99.90
54576;DHT22;40472;53.486;14.542;2022-09-09T03:38:04;14.00;99.90
54576;DHT22;40472;53.486;14.542;2022-09-09T03:40:30;14.00;99.90
54576;DHT22;40472;53.486;14.542;2022-09-09T03:42:56;13.90;99.90
54576;DHT22;40472;53.486;14.542;2022-09-09T03:45:22;13.90;99.90
54576;DHT22;40472;53.486;14.542;2022-09-09T03:47:47;13.80;99.90
54576;DHT22;40472;53.486;14.542;2022-09-09T03:50:14;13.70;99.90
54576;DHT22;40472;53.486;14.542;2022-09-09T03:52:41;13.60;99.90
54576;DHT22;40472;53.486;14.542;2022-09-09T03:55:07;13.60;99.90
54576;DHT22;40472;53.486;14.542;2022-09-09T03:57:34;13.60;99.90
54576;DHT22;40472;53.486;14.542;2022-09-09T04:00:05;13.50;99.90
54576;DHT22;40472;53.486;14.542;2022-09-09T04:02:32;13.60;99.90
54576;DHT22;40472;53.486;14.542;2022-09-09T04:04:58;13.60;99.90
54576;DHT22;40472;53.486;14.542;2022-09-09T04:07:25;13.50;99.90
54576;DHT22;40472;53.486;14.542;2022-09-09T04:09:52;13.50;99.90
54576;DHT22;40472;53.486;14.542;2022-09-09T04:12:19;13.50;99.90
54576;DHT22;40472;53.486;14.542;2022-09-09T04:14:46;13.50;99.90
54576;DHT22;40472;53.486;14.542;2022-09-09T04:17:12;13.40;99.90
54576;DHT22;40472;53.486;14.542;2022-09-09T04:19:37;13.30;99.90
54576;DHT22;40472;53.486;14.542;2022-09-09T04:22:03;13.30;99.90
54576;DHT22;40472;53.486;14.542;2022-09-09T04:24:29;13.30;99.90
54576;DHT22;40472;53.486;14.542;2022-09-09T04:26:55;13.40;99.90
54576;DHT22;40472;53.486;14.542;2022-09-09T04:29:21;13.40;99.90
54576;DHT22;40472;53.486;14.542;2022-09-09T04:31:47;13.50;99.90
54576;DHT22;40472;53.486;14.542;2022-09-09T04:34:13;13.50;99.90
54576;DHT22;40472;53.486;14.542;2022-09-09T04:36:38;13.50;99.90
54576;DHT22;40472;53.486;14.542;2022-09-09T04:39:05;13.50;99.90
54576;DHT22;40472;53.486;14.542;2022-09-09T04:41:31;13.50;99.90
54576;DHT22;40472;53.486;14.542;2022-09-09T04:43:58;13.60;99.90
54576;DHT22;40472;53.486;14.542;2022-09-09T04:46:25;13.70;99.90
54576;DHT22;40472;53.486;14.542;2022-09-09T04:48:51;13.70;99.90
54576;DHT22;40472;53.486;14.542;2022-09-09T04:51:18;13.80;99.90
54576;DHT22;40472;53.486;14.542;2022-09-09T04:53:44;13.90;99.90
54576;DHT22;40472;53.486;14.542;2022-09-09T04:56:14;13.90;99.90
54576;DHT22;40472;53.486;14.542;2022-09-09T04:58:40;14.00;99.90
54576;DHT22;40472;53.486;14.542;2022-09-09T05:03:39;14.00;99.90
54576;DHT22;40472;53.486;14.542;2022-09-09T05:06:07;14.10;99.90
54576;DHT22;40472;53.486;14.542;2022-09-09T05:08:36;14.10;99.90
54576;DHT22;40472;53.486;14.542;2022-09-09T05:11:02;14.00;99.90
54576;DHT22;40472;53.486;14.542;2022-09-09T05:13:28;14.10;99.90
54576;DHT22;40472;53.486;14.542;2022-09-09T05:16:00;14.20;99.90
54576;DHT22;40472;53.486;14.542;2022-09-09T05:18:26;14.20;99.90
54576;DHT22;40472;53.486;14.542;2022-09-09T05:20:51;14.20;99.90
54576;DHT22;40472;53.486;14.542;2022-09-09T05:23:17;14.30;99.90
54576;DHT22;40472;53.486;14.542;2022-09-09T05:25:43;14.30;99.90
54576;DHT22;40472;53.486;14.542;2022-09-09T05:28:09;14.30;99.90
54576;DHT22;40472;53.486;14.542;2022-09-09T05:30:39;14.30;99.90
54576;DHT22;40472;53.486;14.542;2022-09-09T05:33:05;14.30;99.90
54576;DHT22;40472;53.486;14.542;2022-09-09T05:35:32;14.30;99.90
54576;DHT22;40472;53.486;14.542;2022-09-09T05:38:02;14.40;99.90
54576;DHT22;40472;53.486;14.542;2022-09-09T05:40:27;14.40;99.90
54576;DHT22;40472;53.486;14.542;2022-09-09T05:42:53;14.50;99.90
54576;DHT22;40472;53.486;14.542;2022-09-09T05:45:19;14.50;99.90
54576;DHT22;40472;53.486;14.542;2022-09-09T05:47:45;14.60;99.90
54576;DHT22;40472;53.486;14.542;2022-09-09T05:50:17;14.70;99.90
54576;DHT22;40472;53.486;14.542;2022-09-09T05:52:43;14.70;99.90
54576;DHT22;40472;53.486;14.542;2022-09-09T05:55:09;14.70;99.90
54576;DHT22;40472;53.486;14.542;2022-09-09T05:57:35;14.70;99.90
54576;DHT22;40472;53.486;14.542;2022-09-09T06:00:01;14.70;99.90
54576;DHT22;40472;53.486;14.542;2022-09-09T06:02:28;14.70;99.90
54576;DHT22;40472;53.486;14.542;2022-09-09T06:04:53;14.80;99.90
54576;DHT22;40472;53.486;14.542;2022-09-09T06:07:21;14.80;99.90
54576;DHT22;40472;53.486;14.542;2022-09-09T06:09:46;14.80;99.90
54576;DHT22;40472;53.486;14.542;2022-09-09T06:12:12;14.80;99.90
54576;DHT22;40472;53.486;14.542;2022-09-09T06:14:38;14.90;99.90
54576;DHT22;40472;53.486;14.542;2022-09-09T06:17:04;14.90;99.90
54576;DHT22;40472;53.486;14.542;2022-09-09T06:19:30;15.00;99.90
54576;DHT22;40472;53.486;14.542;2022-09-09T06:21:56;15.10;99.90
54576;DHT22;40472;53.486;14.542;2022-09-09T06:24:22;15.10;99.90
54576;DHT22;40472;53.486;14.542;2022-09-09T06:26:48;15.00;99.90
54576;DHT22;40472;53.486;14.542;2022-09-09T06:29:13;15.10;99.90
54576;DHT22;40472;53.486;14.542;2022-09-09T06:31:39;15.00;99.90
54576;DHT22;40472;53.486;14.542;2022-09-09T06:34:08;15.00;99.90
54576;DHT22;40472;53.486;14.542;2022-09-09T06:36:38;15.10;99.90
54576;DHT22;40472;53.486;14.542;2022-09-09T06:39:05;15.10;99.90
54576;DHT22;40472;53.486;14.542;2022-09-09T06:41:32;15.20;99.90
54576;DHT22;40472;53.486;14.542;2022-09-09T06:43:58;15.10;99.90
54576;DHT22;40472;53.486;14.542;2022-09-09T06:46:27;15.10;99.90
54576;DHT22;40472;53.486;14.542;2022-09-09T06:48:53;15.20;99.90
54576;DHT22;40472;53.486;14.542;2022-09-09T06:51:26;15.20;99.90
54576;DHT22;40472;53.486;14.542;2022-09-09T06:53:54;15.20;99.90
54576;DHT22;40472;53.486;14.542;2022-09-09T06:56:32;15.30;99.90
54576;DHT22;40472;53.486;14.542;2022-09-09T06:59:01;15.40;99.90
54576;DHT22;40472;53.486;14.542;2022-09-09T07:01:33;15.40;99.90
54576;DHT22;40472;53.486;14.542;2022-09-09T07:03:59;15.30;99.90
54576;DHT22;40472;53.486;14.542;2022-09-09T07:06:29;15.40;99.90
54576;DHT22;40472;53.486;14.542;2022-09-09T07:08:58;15.40;99.90
54576;DHT22;40472;53.486;14.542;2022-09-09T07:11:26;15.50;99.90
54576;DHT22;40472;53.486;14.542;2022-09-09T07:13:52;15.50;99.90
54576;DHT22;40472;53.486;14.542;2022-09-09T07:16:20;15.60;99.90
54576;DHT22;40472;53.486;14.542;2022-09-09T07:18:46;15.60;99.90
54576;DHT22;40472;53.486;14.542;2022-09-09T07:21:13;15.70;99.90
54576;DHT22;40472;53.486;14.542;2022-09-09T07:23:40;15.80;99.90
54576;DHT22;40472;53.486;14.542;2022-09-09T07:26:11;15.80;99.90
54576;DHT22;40472;53.486;14.542;2022-09-09T07:28:38;15.90;99.90
54576;DHT22;40472;53.486;14.542;2022-09-09T07:31:04;16.00;99.90
54576;DHT22;40472;53.486;14.542;2022-09-09T07:33:32;16.20;99.90
54576;DHT22;40472;53.486;14.542;2022-09-09T07:38:40;16.20;99.90
54576;DHT22;40472;53.486;14.542;2022-09-09T07:41:08;16.40;99.90
54576;DHT22;40472;53.486;14.542;2022-09-09T07:43:45;16.40;99.90
54576;DHT22;40472;53.486;14.542;2022-09-09T07:46:12;16.20;99.90
54576;DHT22;40472;53.486;14.542;2022-09-09T07:48:43;16.30;99.90
54576;DHT22;40472;53.486;14.542;2022-09-09T07:51:11;16.10;99.90
54576;DHT22;40472;53.486;14.542;2022-09-09T07:53:40;16.40;99.90
54576;DHT22;40472;53.486;14.542;2022-09-09T07:56:09;16.50;99.90
54576;DHT22;40472;53.486;14.542;2022-09-09T07:58:40;16.60;99.90
54576;DHT22;40472;53.486;14.542;2022-09-09T08:01:11;16.60;99.90
54576;DHT22;40472;53.486;14.542;2022-09-09T08:03:37;16.80;99.90
54576;DHT22;40472;53.486;14.542;2022-09-09T08:06:05;16.80;99.90
54576;DHT22;40472;53.486;14.542;2022-09-09T08:08:32;17.00;99.90
54576;DHT22;40472;53.486;14.542;2022-09-09T08:11:07;17.00;99.90
54576;DHT22;40472;53.486;14.542;2022-09-09T08:13:38;17.30;99.90
54576;DHT22;40472;53.486;14.542;2022-09-09T08:18:35;17.70;99.90
54576;DHT22;40472;53.486;14.542;2022-09-09T08:21:11;17.30;99.90
54576;DHT22;40472;53.486;14.542;2022-09-09T08:23:43;17.40;99.90
54576;DHT22;40472;53.486;14.542;2022-09-09T08:26:16;17.60;99.90
54576;DHT22;40472;53.486;14.542;2022-09-09T08:28:43;17.50;99.90
54576;DHT22;40472;53.486;14.542;2022-09-09T08:31:14;17.50;99.90
54576;DHT22;40472;53.486;14.542;2022-09-09T08:33:42;17.40;99.90
54576;DHT22;40472;53.486;14.542;2022-09-09T08:36:13;17.50;99.90
54576;DHT22;40472;53.486;14.542;2022-09-09T08:38:41;17.20;99.90
54576;DHT22;40472;53.486;14.542;2022-09-09T08:58:51;17.40;99.90
54576;DHT22;40472;53.486;14.542;2022-09-09T09:11:46;18.10;99.90
54576;DHT22;40472;53.486;14.542;2022-09-09T09:14:22;18.10;99.90
54576;DHT22;40472;53.486;14.542;2022-09-09T09:16:51;17.90;99.90
54576;DHT22;40472;53.486;14.542;2022-09-09T09:19:17;17.90;99.90
54576;DHT22;40472;53.486;14.542;2022-09-09T09:22:03;17.80;99.90
54576;DHT22;40472;53.486;14.542;2022-09-09T09:24:55;17.60;99.90
54576;DHT22;40472;53.486;14.542;2022-09-09T09:27:36;17.70;99.90
54576;DHT22;40472;53.486;14.542;2022-09-09T09:30:15;17.60;99.90
54576;DHT22;40472;53.486;14.542;2022-09-09T09:35:19;17.90;99.90
54576;DHT22;40472;53.486;14.542;2022-09-09T09:37:44;17.80;99.90
54576;DHT22;40472;53.486;14.542;2022-09-09T09:40:12;17.70;99.90
54576;DHT22;40472;53.486;14.542;2022-09-09T09:42:49;17.90;99.90
54576;DHT22;40472;53.486;14.542;2022-09-09T09:47:58;17.90;99.90
54576;DHT22;40472;53.486;14.542;2022-09-09T09:50:24;17.90;99.90
54576;DHT22;40472;53.486;14.542;2022-09-09T09:52:57;17.80;99.90
54576;DHT22;40472;53.486;14.542;2022-09-09T09:55:24;17.90;99.90
54576;DHT22;40472;53.486;14.542;2022-09-09T09:57:50;17.80;99.90
54576;DHT22;40472;53.486;14.542;2022-09-09T10:00:18;17.80;99.90
54576;DHT22;40472;53.486;14.542;2022-09-09T10:02:46;17.90;99.90
54576;DHT22;40472;53.486;14.542;2022-09-09T10:05:21;17.90;99.90
54576;DHT22;40472;53.486;14.542;2022-09-09T10:08:00;17.90;99.90
54576;DHT22;40472;53.486;14.542;2022-09-09T10:16:47;18.30;99.90
54576;DHT22;40472;53.486;14.542;2022-09-09T10:19:30;18.60;99.90
54576;DHT22;40472;53.486;14.542;2022-09-09T10:38:45;18.20;99.90
54576;DHT22;40472;53.486;14.542;2022-09-09T10:41:58;18.00;99.90
54576;DHT22;40472;53.486;14.542;2022-09-09T10:44:15;18.10;99.90
54576;DHT22;40472;53.486;14.542;2022-09-09T10:52:46;18.50;99.90
54576;DHT22;40472;53.486;14.542;2022-09-09T10:55:20;18.60;99.90
54576;DHT22;40472;53.486;14.542;2022-09-09T10:57:48;19.00;99.90
54576;DHT22;40472;53.486;14.542;2022-09-09T11:00:23;19.20;99.90
54576;DHT22;40472;53.486;14.542;2022-09-09T11:03:01;19.20;99.90
54576;DHT22;40472;53.486;14.542;2022-09-09T11:05:43;19.30;99.90
54576;DHT22;40472;53.486;14.542;2022-09-09T11:08:27;19.20;99.90
54576;DHT22;40472;53.486;14.542;2022-09-09T11:21:45;20.10;99.90
54576;DHT22;40472;53.486;14.542;2022-09-09T11:24:23;20.40;99.90
54576;DHT22;40472;53.486;14.542;2022-09-09T11:27:15;20.30;99.90
54576;DHT22;40472;53.486;14.542;2022-09-09T11:32:29;20.60;99.90
54576;DHT22;40472;53.486;14.542;2022-09-09T11:38:09;20.40;99.90
54576;DHT22;40472;53.486;14.542;2022-09-09T11:40:40;20.50;99.90
54576;DHT22;40472;53.486;14.542;2022-09-09T11:43:13;20.80;99.90
54576;DHT22;40472;53.486;14.542;2022-09-09T11:45:41;21.00;99.90
54576;DHT22;40472;53.486;14.542;2022-09-09T11:51:12;21.60;99.90
54576;DHT22;40472;53.486;14.542;2022-09-09T11:53:52;21.60;99.90
54576;DHT22;40472;53.486;14.542;2022-09-09T11:56:45;21.60;99.90
54576;DHT22;40472;53.486;14.542;2022-09-09T11:59:21;21.20;99.90
54576;DHT22;40472;53.486;14.542;2022-09-09T12:07:04;20.50;99.90
54576;DHT22;40472;53.486;14.542;2022-09-09T12:09:51;20.50;99.90
54576;DHT22;40472;53.486;14.542;2022-09-09T12:12:30;20.70;99.90
54576;DHT22;40472;53.486;14.542;2022-09-09T12:17:41;20.70;99.90
54576;DHT22;40472;53.486;14.542;2022-09-09T12:20:20;20.60;99.90
54576;DHT22;40472;53.486;14.542;2022-09-09T12:23:10;21.00;99.90
54576;DHT22;40472;53.486;14.542;2022-09-09T12:25:58;21.30;99.90
54576;DHT22;40472;53.486;14.542;2022-09-09T12:33:23;21.50;99.90
54576;DHT22;40472;53.486;14.542;2022-09-09T12:35:55;21.90;99.90
54576;DHT22;40472;53.486;14.542;2022-09-09T12:38:41;22.40;99.90
54576;DHT22;40472;53.486;14.542;2022-09-09T12:41:23;22.90;99.90
54576;DHT22;40472;53.486;14.542;2022-09-09T12:43:49;22.90;99.90
54576;DHT22;40472;53.486;14.542;2022-09-09T12:46:40;22.90;99.90
54576;DHT22;40472;53.486;14.542;2022-09-09T12:49:33;22.60;99.90
54576;DHT22;40472;53.486;14.542;2022-09-09T12:52:20;22.60;99.90
54576;DHT22;40472;53.486;14.542;2022-09-09T12:54:48;22.40;99.90
54576;DHT22;40472;53.486;14.542;2022-09-09T12:57:17;22.60;99.90
54576;DHT22;40472;53.486;14.542;2022-09-09T12:59:44;22.60;99.90
54576;DHT22;40472;53.486;14.542;2022-09-09T13:02:32;22.50;99.90
54576;DHT22;40472;53.486;14.542;2022-09-09T13:05:12;22.20;99.90
54576;DHT22;40472;53.486;14.542;2022-09-09T13:07:39;22.10;99.90
54576;DHT22;40472;53.486;14.542;2022-09-09T13:10:05;21.90;99.90
54576;DHT22;40472;53.486;14.542;2022-09-09T13:12:35;21.90;99.90
54576;DHT22;40472;53.486;14.542;2022-09-09T13:15:01;22.00;99.90
54576;DHT22;40472;53.486;14.542;2022-09-09T13:17:27;21.80;99.90
54576;DHT22;40472;53.486;14.542;2022-09-09T13:19:57;21.90;99.90
54576;DHT22;40472;53.486;14.542;2022-09-09T13:22:35;21.70;99.90
54576;DHT22;40472;53.486;14.542;2022-09-09T13:27:39;21.70;99.90
54576;DHT22;40472;53.486;14.542;2022-09-09T13:30:24;21.90;99.90
54576;DHT22;40472;53.486;14.542;2022-09-09T13:35:26;22.30;99.90
54576;DHT22;40472;53.486;14.542;2022-09-09T13:37:52;22.30;99.90
54576;DHT22;40472;53.486;14.542;2022-09-09T13:40:20;22.50;99.90
54576;DHT22;40472;53.486;14.542;2022-09-09T13:42:50;22.60;99.90
54576;DHT22;40472;53.486;14.542;2022-09-09T13:45:24;22.70;99.90
54576;DHT22;40472;53.486;14.542;2022-09-09T13:47:53;22.40;99.90
54576;DHT22;40472;53.486;14.542;2022-09-09T13:50:27;22.50;99.90
54576;DHT22;40472;53.486;14.542;2022-09-09T13:52:55;22.40;99.90
54576;DHT22;40472;53.486;14.542;2022-09-09T13:55:23;22.30;99.90
54576;DHT22;40472;53.486;14.542;2022-09-09T13:57:57;22.20;99.90
54576;DHT22;40472;53.486;14.542;2022-09-09T14:00:24;21.90;99.90
54576;DHT22;40472;53.486;14.542;2022-09-09T14:02:51;21.70;99.90
54576;DHT22;40472;53.486;14.542;2022-09-09T14:05:19;22.00;99.90
54576;DHT22;40472;53.486;14.542;2022-09-09T14:07:46;22.00;99.90
54576;DHT22;40472;53.486;14.542;2022-09-09T14:10:12;22.20;99.90
54576;DHT22;40472;53.486;14.542;2022-09-09T14:12:38;22.20;99.90
54576;DHT22;40472;53.486;14.542;2022-09-09T14:15:06;22.50;99.90
54576;DHT22;40472;53.486;14.542;2022-09-09T14:17:32;22.40;99.90
54576;DHT22;40472;53.486;14.542;2022-09-09T14:19:58;22.10;99.90
54576;DHT22;40472;53.486;14.542;2022-09-09T14:22:24;21.80;99.90
54576;DHT22;40472;53.486;14.542;2022-09-09T14:24:51;21.70;99.90
54576;DHT22;40472;53.486;14.542;2022-09-09T14:27:17;21.50;99.90
54576;DHT22;40472;53.486;14.542;2022-09-09T14:29:44;21.50;99.90
54576;DHT22;40472;53.486;14.542;2022-09-09T14:32:11;21.50;99.90
54576;DHT22;40472;53.486;14.542;2022-09-09T14:34:37;21.50;99.90
54576;DHT22;40472;53.486;14.542;2022-09-09T14:37:03;21.20;99.90
54576;DHT22;40472;53.486;14.542;2022-09-09T14:39:29;20.70;99.90
54576;DHT22;40472;53.486;14.542;2022-09-09T14:41:56;20.70;99.90
54576;DHT22;40472;53.486;14.542;2022-09-09T14:44:21;20.50;99.90
54576;DHT22;40472;53.486;14.542;2022-09-09T14:46:47;20.20;99.90
54576;DHT22;40472;53.486;14.542;2022-09-09T14:49:16;20.10;99.90
54576;DHT22;40472;53.486;14.542;2022-09-09T14:51:41;19.90;99.90
54576;DHT22;40472;53.486;14.542;2022-09-09T14:54:07;19.80;99.90
54576;DHT22;40472;53.486;14.542;2022-09-09T14:56:34;19.80;99.90
54576;DHT22;40472;53.486;14.542;2022-09-09T14:59:00;20.00;99.90
54576;DHT22;40472;53.486;14.542;2022-09-09T15:01:27;20.10;99.90
54576;DHT22;40472;53.486;14.542;2022-09-09T15:03:54;20.40;99.90
54576;DHT22;40472;53.486;14.542;2022-09-09T15:06:21;20.50;99.90
54576;DHT22;40472;53.486;14.542;2022-09-09T15:08:50;20.80;99.90
54576;DHT22;40472;53.486;14.542;2022-09-09T15:11:16;20.80;99.90
54576;DHT22;40472;53.486;14.542;2022-09-09T15:13:43;21.00;99.90
54576;DHT22;40472;53.486;14.542;2022-09-09T15:16:17;21.20;99.90
54576;DHT22;40472;53.486;14.542;2022-09-09T15:18:44;21.40;99.90
54576;DHT22;40472;53.486;14.542;2022-09-09T15:21:14;21.50;99.90
54576;DHT22;40472;53.486;14.542;2022-09-09T15:23:41;21.20;99.90
54576;DHT22;40472;53.486;14.542;2022-09-09T15:26:08;21.40;99.90
54576;DHT22;40472;53.486;14.542;2022-09-09T15:28:36;21.40;99.90
54576;DHT22;40472;53.486;14.542;2022-09-09T15:31:05;21.40;99.90
54576;DHT22;40472;53.486;14.542;2022-09-09T15:33:33;21.50;99.90
54576;DHT22;40472;53.486;14.542;2022-09-09T15:35:59;21.50;99.90
54576;DHT22;40472;53.486;14.542;2022-09-09T15:38:25;21.10;99.90
54576;DHT22;40472;53.486;14.542;2022-09-09T15:40:56;21.00;99.90
54576;DHT22;40472;53.486;14.542;2022-09-09T15:43:23;20.80;99.90
54576;DHT22;40472;53.486;14.542;2022-09-09T15:45:56;20.30;99.90
54576;DHT22;40472;53.486;14.542;2022-09-09T15:48:30;20.20;99.90
54576;DHT22;40472;53.486;14.542;2022-09-09T15:51:04;19.90;99.90
54576;DHT22;40472;53.486;14.542;2022-09-09T15:53:30;19.80;99.90
54576;DHT22;40472;53.486;14.542;2022-09-09T15:55:58;19.70;99.90
54576;DHT22;40472;53.486;14.542;2022-09-09T15:58:25;19.50;99.90
54576;DHT22;40472;53.486;14.542;2022-09-09T16:00:50;19.40;99.90
54576;DHT22;40472;53.486;14.542;2022-09-09T16:03:17;19.30;99.90
54576;DHT22;40472;53.486;14.542;2022-09-09T16:05:42;19.20;99.90
54576;DHT22;40472;53.486;14.542;2022-09-09T16:08:08;19.00;99.90
54576;DHT22;40472;53.486;14.542;2022-09-09T16:10:35;18.90;99.90
54576;DHT22;40472;53.486;14.542;2022-09-09T16:13:01;18.80;99.90
54576;DHT22;40472;53.486;14.542;2022-09-09T16:15:28;18.80;99.90
54576;DHT22;40472;53.486;14.542;2022-09-09T16:17:54;18.70;99.90
54576;DHT22;40472;53.486;14.542;2022-09-09T16:20:20;18.60;99.90
54576;DHT22;40472;53.486;14.542;2022-09-09T16:22:46;18.60;99.90
54576;DHT22;40472;53.486;14.542;2022-09-09T16:25:12;18.60;99.90
54576;DHT22;40472;53.486;14.542;2022-09-09T16:27:37;18.60;99.90
54576;DHT22;40472;53.486;14.542;2022-09-09T16:30:03;18.40;99.90
54576;DHT22;40472;53.486;14.542;2022-09-09T16:32:29;18.30;99.90
54576;DHT22;40472;53.486;14.542;2022-09-09T16:34:55;18.20;99.90
54576;DHT22;40472;53.486;14.542;2022-09-09T16:37:21;18.20;99.90
54576;DHT22;40472;53.486;14.542;2022-09-09T16:39:47;18.20;99.90
54576;DHT22;40472;53.486;14.542;2022-09-09T16:42:12;18.00;99.90
54576;DHT22;40472;53.486;14.542;2022-09-09T16:44:38;18.00;99.90
54576;DHT22;40472;53.486;14.542;2022-09-09T16:47:04;17.90;99.90
54576;DHT22;40472;53.486;14.542;2022-09-09T16:49:30;17.80;99.90
54576;DHT22;40472;53.486;14.542;2022-09-09T16:51:58;17.80;99.90
54576;DHT22;40472;53.486;14.542;2022-09-09T16:54:24;17.70;99.90
54576;DHT22;40472;53.486;14.542;2022-09-09T16:56:52;17.70;99.90
54576;DHT22;40472;53.486;14.542;2022-09-09T16:59:19;17.70;99.90
54576;DHT22;40472;53.486;14.542;2022-09-09T17:01:49;17.80;99.90
54576;DHT22;40472;53.486;14.542;2022-09-09T17:04:17;17.80;99.90
54576;DHT22;40472;53.486;14.542;2022-09-09T17:06:47;17.80;99.90
54576;DHT22;40472;53.486;14.542;2022-09-09T17:09:15;17.80;99.90
54576;DHT22;40472;53.486;14.542;2022-09-09T17:11:41;17.70;99.90
54576;DHT22;40472;53.486;14.542;2022-09-09T17:14:09;17.60;99.90
54576;DHT22;40472;53.486;14.542;2022-09-09T17:16:36;17.40;99.90
54576;DHT22;40472;53.486;14.542;2022-09-09T17:19:05;17.40;99.90
54576;DHT22;40472;53.486;14.542;2022-09-09T17:21:32;17.30;99.90
54576;DHT22;40472;53.486;14.542;2022-09-09T17:23:58;17.20;99.90
54576;DHT22;40472;53.486;14.542;2022-09-09T17:26:30;17.20;99.90
54576;DHT22;40472;53.486;14.542;2022-09-09T17:28:56;17.10;99.90
54576;DHT22;40472;53.486;14.542;2022-09-09T17:31:24;16.90;99.90
54576;DHT22;40472;53.486;14.542;2022-09-09T17:33:51;16.70;99.90
54576;DHT22;40472;53.486;14.542;2022-09-09T17:36:27;16.60;99.90
54576;DHT22;40472;53.486;14.542;2022-09-09T17:38:53;16.50;99.90
54576;DHT22;40472;53.486;14.542;2022-09-09T17:41:22;16.50;99.90
54576;DHT22;40472;53.486;14.542;2022-09-09T17:43:48;16.40;99.90
54576;DHT22;40472;53.486;14.542;2022-09-09T17:46:17;16.30;99.90
54576;DHT22;40472;53.486;14.542;2022-09-09T17:48:45;16.20;99.90
54576;DHT22;40472;53.486;14.542;2022-09-09T17:51:14;16.20;99.90
54576;DHT22;40472;53.486;14.542;2022-09-09T17:53:46;16.20;99.90
54576;DHT22;40472;53.486;14.542;2022-09-09T17:56:15;16.20;99.90